Time;durP1;ratioP1;P1;durP2;ratioP2;P2;SDS_P1;SDS_P2;PMS_P1;PMS_P2;Temp;Humidity;BMP_temperature;BMP_pressure;BME280_temperature;BME280_humidity;BME280_pressure;Samples;Min_cycle;Max_cycle;Signal;HPM_P1;HPM_P2
2021/09/19 00:00:26;;;;;;;8.95;5.47;;;13.50;99.90;;;;;;5070147;28;20028;-51
2021/09/19 00:02:51;;;;;;;8.55;5.97;;;13.50;99.90;;;;;;5054897;28;20101;-51
2021/09/19 00:05:17;;;;;;;12.02;5.93;;;13.40;99.90;;;;;;5061270;28;20405;-48
2021/09/19 00:07:43;;;;;;;11.55;5.78;;;13.40;99.90;;;;;;5068969;28;20390;-48
2021/09/19 00:10:11;;;;;;;7.78;5.80;;;13.30;99.90;;;;;;5069203;28;20052;-48
2021/09/19 00:12:37;;;;;;;9.50;6.32;;;13.30;99.90;;;;;;5069199;28;20123;-50
2021/09/19 00:15:04;;;;;;;11.52;5.93;;;13.20;99.90;;;;;;5068973;28;20033;-48
2021/09/19 00:17:30;;;;;;;8.50;5.55;;;13.20;99.90;;;;;;5068596;28;20508;-51
2021/09/19 00:19:55;;;;;;;11.25;5.97;;;13.20;99.90;;;;;;5069360;28;20028;-50
2021/09/19 00:22:21;;;;;;;8.20;4.40;;;13.10;99.90;;;;;;5069175;28;20099;-48
2021/09/19 00:24:46;;;;;;;11.65;6.03;;;13.10;99.90;;;;;;5069160;28;20032;-48
2021/09/19 00:27:12;;;;;;;9.73;4.85;;;13.10;99.90;;;;;;5068070;28;20060;-50
2021/09/19 00:29:37;;;;;;;8.77;5.15;;;13.10;99.90;;;;;;5069053;28;20032;-48
2021/09/19 00:32:03;;;;;;;9.23;5.32;;;13.10;99.90;;;;;;5066679;28;20028;-49
2021/09/19 00:34:29;;;;;;;11.02;5.28;;;13.00;99.90;;;;;;5051416;28;20155;-48
2021/09/19 00:36:55;;;;;;;7.75;5.30;;;13.00;99.90;;;;;;5066910;28;20055;-48
2021/09/19 00:39:20;;;;;;;7.82;5.28;;;13.00;99.90;;;;;;5068813;28;20048;-49
2021/09/19 00:41:46;;;;;;;10.43;5.38;;;13.00;99.90;;;;;;5068559;28;20082;-49
2021/09/19 00:44:11;;;;;;;9.48;4.70;;;12.90;99.90;;;;;;5068888;28;20290;-51
2021/09/19 00:46:37;;;;;;;9.30;5.30;;;12.90;99.90;;;;;;5068054;28;20033;-48
2021/09/19 00:49:04;;;;;;;8.15;5.22;;;12.90;99.90;;;;;;5068682;28;20496;-52
2021/09/19 00:51:31;;;;;;;12.93;6.10;;;12.80;99.90;;;;;;5067214;28;20035;-49
2021/09/19 00:53:57;;;;;;;8.18;5.57;;;12.80;99.90;;;;;;5068512;28;20074;-48
2021/09/19 00:56:24;;;;;;;8.52;5.50;;;12.70;99.90;;;;;;5068282;28;20537;-48
2021/09/19 00:58:52;;;;;;;9.75;5.80;;;12.60;99.90;;;;;;5068356;28;20020;-50
2021/09/19 01:01:17;;;;;;;10.23;5.25;;;12.60;99.90;;;;;;5068210;28;20563;-51
2021/09/19 01:03:43;;;;;;;7.43;5.18;;;12.50;99.90;;;;;;5054873;28;20021;-51
2021/09/19 01:06:09;;;;;;;8.05;4.95;;;12.60;99.90;;;;;;5059925;28;20024;-51
2021/09/19 01:08:34;;;;;;;7.55;5.93;;;12.60;99.90;;;;;;5068026;28;20463;-51
2021/09/19 01:11:00;;;;;;;14.65;5.25;;;12.60;99.90;;;;;;5066717;28;20051;-49
2021/09/19 01:13:27;;;;;;;8.77;5.03;;;12.50;99.90;;;;;;5067938;28;20064;-48
2021/09/19 01:15:53;;;;;;;9.52;5.18;;;12.60;99.90;;;;;;5067638;28;20063;-49
2021/09/19 01:18:20;;;;;;;13.07;4.90;;;12.50;99.90;;;;;;5067315;28;20070;-48
2021/09/19 01:20:46;;;;;;;9.48;5.10;;;12.50;99.90;;;;;;5067997;28;20398;-49
2021/09/19 01:23:13;;;;;;;10.60;5.30;;;12.50;99.90;;;;;;5067932;28;20069;-48
2021/09/19 01:25:41;;;;;;;9.02;5.65;;;12.50;99.90;;;;;;5068074;28;20024;-48
2021/09/19 01:28:07;;;;;;;6.50;5.25;;;12.50;99.90;;;;;;5066463;28;20502;-47
2021/09/19 01:30:35;;;;;;;12.43;5.55;;;12.50;99.90;;;;;;5067473;28;20495;-47
2021/09/19 01:33:02;;;;;;;8.43;5.65;;;12.50;99.90;;;;;;5054473;28;20370;-47
2021/09/19 01:35:29;;;;;;;11.32;5.68;;;12.50;99.90;;;;;;5059656;28;20032;-48
2021/09/19 01:37:56;;;;;;;11.27;6.55;;;12.50;99.90;;;;;;5067179;28;20013;-48
2021/09/19 01:40:22;;;;;;;10.90;5.53;;;12.50;99.90;;;;;;5067677;28;20390;-48
2021/09/19 01:42:48;;;;;;;9.98;5.10;;;12.50;99.90;;;;;;5065936;28;20371;-47
2021/09/19 01:45:13;;;;;;;10.25;5.28;;;12.40;99.90;;;;;;5067272;28;20033;-48
2021/09/19 01:47:39;;;;;;;7.88;5.25;;;12.50;99.90;;;;;;5067342;28;20116;-48
2021/09/19 01:50:05;;;;;;;9.15;4.85;;;12.50;99.90;;;;;;5067901;28;20497;-48
2021/09/19 01:52:31;;;;;;;6.78;4.80;;;12.50;99.90;;;;;;5067857;28;20123;-47
2021/09/19 01:54:59;;;;;;;9.00;5.25;;;12.50;99.90;;;;;;5067534;28;20247;-50
2021/09/19 01:57:25;;;;;;;8.15;5.90;;;12.50;99.90;;;;;;5066819;28;20386;-48
2021/09/19 01:59:54;;;;;;;9.50;5.20;;;12.50;99.90;;;;;;5067898;28;20097;-48
2021/09/19 02:02:20;;;;;;;7.63;5.25;;;12.50;99.90;;;;;;5058009;28;20675;-48
2021/09/19 02:04:47;;;;;;;10.25;5.35;;;12.50;99.90;;;;;;5052963;28;20032;-48
2021/09/19 02:07:12;;;;;;;12.80;5.13;;;12.50;99.90;;;;;;5066900;28;20111;-50
2021/09/19 02:09:38;;;;;;;10.85;5.22;;;12.50;99.90;;;;;;5067716;28;20111;-50
2021/09/19 02:12:04;;;;;;;9.95;5.35;;;12.60;99.90;;;;;;5067667;28;20390;-48
2021/09/19 02:14:31;;;;;;;8.75;5.72;;;12.60;99.90;;;;;;5067476;28;20033;-50
2021/09/19 02:16:56;;;;;;;8.48;4.93;;;12.60;99.90;;;;;;5065593;28;20497;-48
2021/09/19 02:19:22;;;;;;;11.27;5.38;;;12.60;99.90;;;;;;5067415;28;20033;-48
2021/09/19 02:21:47;;;;;;;8.88;5.53;;;12.60;99.90;;;;;;5067809;28;20199;-48
2021/09/19 02:24:13;;;;;;;8.57;5.28;;;12.60;99.90;;;;;;5067426;28;20024;-48
2021/09/19 02:26:38;;;;;;;10.43;4.72;;;12.60;99.90;;;;;;5066233;28;20036;-48
2021/09/19 02:29:04;;;;;;;11.85;5.38;;;12.60;99.90;;;;;;5066051;28;20386;-48
2021/09/19 02:31:31;;;;;;;8.50;5.25;;;12.60;99.90;;;;;;5067368;28;20037;-49
2021/09/19 02:33:57;;;;;;;7.72;5.18;;;12.60;99.90;;;;;;5053426;28;20020;-48
2021/09/19 02:36:23;;;;;;;8.52;4.47;;;12.60;99.90;;;;;;5060847;28;20425;-49
2021/09/19 02:38:49;;;;;;;9.43;5.68;;;12.60;99.90;;;;;;5065591;28;20017;-50
2021/09/19 02:41:14;;;;;;;9.35;5.75;;;12.60;99.90;;;;;;5069928;28;20025;-49
2021/09/19 02:43:40;;;;;;;6.55;4.75;;;12.60;99.90;;;;;;5071530;28;20025;-49
2021/09/19 02:46:05;;;;;;;10.50;5.32;;;12.60;99.90;;;;;;5070664;28;20090;-48
2021/09/19 02:48:31;;;;;;;6.78;4.75;;;12.60;99.90;;;;;;5070036;28;20032;-50
2021/09/19 02:50:56;;;;;;;7.85;5.32;;;12.60;99.90;;;;;;5069594;28;20429;-48
2021/09/19 02:53:22;;;;;;;8.70;6.18;;;12.60;99.90;;;;;;5070747;28;20082;-50
2021/09/19 02:55:47;;;;;;;6.88;4.80;;;12.50;99.90;;;;;;5070353;28;20025;-49
2021/09/19 02:58:13;;;;;;;6.60;5.00;;;12.60;99.90;;;;;;5070601;28;20024;-49
2021/09/19 03:00:38;;;;;;;10.52;5.38;;;12.60;99.90;;;;;;5071040;28;20032;-50
2021/09/19 03:03:04;;;;;;;7.47;5.28;;;12.60;99.90;;;;;;5059646;28;20099;-49
2021/09/19 03:05:29;;;;;;;6.30;4.75;;;12.60;99.90;;;;;;5062716;28;20101;-49
2021/09/19 03:07:55;;;;;;;6.75;4.82;;;12.60;99.90;;;;;;5068824;28;20024;-50
2021/09/19 03:10:22;;;;;;;7.18;4.72;;;12.50;99.90;;;;;;5070454;28;20029;-49
2021/09/19 03:12:47;;;;;;;7.90;5.30;;;12.60;99.90;;;;;;5070097;28;20028;-49
2021/09/19 03:15:13;;;;;;;10.65;5.25;;;12.60;99.90;;;;;;5070863;28;20500;-49
2021/09/19 03:17:39;;;;;;;6.82;5.35;;;12.60;99.90;;;;;;5069385;28;20028;-50
2021/09/19 03:20:07;;;;;;;10.48;5.68;;;12.60;99.90;;;;;;5070603;28;20016;-50
2021/09/19 03:22:33;;;;;;;7.90;4.95;;;12.60;99.90;;;;;;5069221;28;20410;-51
2021/09/19 03:24:58;;;;;;;7.13;5.32;;;12.60;99.90;;;;;;5070121;28;20033;-51
2021/09/19 03:27:24;;;;;;;8.48;4.70;;;12.60;99.90;;;;;;5069559;28;20183;-49
2021/09/19 03:29:49;;;;;;;10.45;5.22;;;12.50;99.90;;;;;;5069815;28;20111;-49
2021/09/19 03:32:15;;;;;;;8.07;5.28;;;12.50;99.90;;;;;;5067907;28;20375;-51
2021/09/19 03:34:40;;;;;;;9.02;5.50;;;12.50;99.90;;;;;;5052785;28;20471;-51
2021/09/19 03:37:06;;;;;;;6.85;5.20;;;12.50;99.90;;;;;;5069241;28;20028;-50
2021/09/19 03:39:31;;;;;;;9.77;5.32;;;12.50;99.90;;;;;;5069929;28;20162;-50
2021/09/19 03:41:57;;;;;;;8.07;5.55;;;12.50;99.90;;;;;;5069967;28;20021;-49
2021/09/19 03:44:22;;;;;;;7.85;5.22;;;12.50;99.90;;;;;;5069977;28;20025;-48
2021/09/19 03:46:48;;;;;;;7.43;5.22;;;12.50;99.90;;;;;;5068967;28;20036;-51
2021/09/19 03:49:13;;;;;;;7.93;5.13;;;12.50;99.90;;;;;;5069542;28;20235;-52
2021/09/19 03:51:39;;;;;;;9.38;5.68;;;12.50;99.90;;;;;;5068867;28;20067;-52
2021/09/19 03:54:04;;;;;;;6.60;5.13;;;12.50;99.90;;;;;;5068764;28;20063;-52
2021/09/19 03:56:30;;;;;;;9.75;5.57;;;12.50;99.90;;;;;;5068889;28;20610;-50
2021/09/19 03:58:56;;;;;;;12.45;6.22;;;12.50;99.90;;;;;;5069794;28;20020;-52
2021/09/19 04:01:21;;;;;;;8.85;5.28;;;12.50;99.90;;;;;;5068626;28;20025;-52
2021/09/19 04:03:47;;;;;;;7.45;4.80;;;12.50;99.90;;;;;;5058598;28;20552;-52
2021/09/19 04:06:12;;;;;;;7.88;5.20;;;12.40;99.90;;;;;;5061395;28;20108;-52
2021/09/19 04:08:38;;;;;;;8.77;5.53;;;12.50;99.90;;;;;;5068131;28;20033;-51
2021/09/19 04:11:03;;;;;;;8.20;5.30;;;12.40;99.90;;;;;;5069449;28;20028;-52
2021/09/19 04:13:29;;;;;;;9.48;5.55;;;12.40;99.90;;;;;;5069155;28;20040;-52
2021/09/19 04:15:54;;;;;;;9.00;5.95;;;12.50;99.90;;;;;;5069161;28;20029;-52
2021/09/19 04:18:19;;;;;;;9.50;5.75;;;12.40;99.90;;;;;;5067150;28;20466;-52
2021/09/19 04:20:45;;;;;;;10.02;5.13;;;12.40;99.90;;;;;;5069010;28;20104;-52
2021/09/19 04:23:11;;;;;;;8.88;6.03;;;12.40;99.90;;;;;;5069219;28;20024;-52
2021/09/19 04:25:37;;;;;;;9.68;5.82;;;12.40;99.90;;;;;;5069542;28;20074;-51
2021/09/19 04:28:03;;;;;;;18.95;6.35;;;12.40;99.90;;;;;;5062982;28;20491;-50
2021/09/19 04:30:29;;;;;;;11.40;6.72;;;12.40;99.90;;;;;;5037045;28;20185;-52
2021/09/19 04:32:54;;;;;;;8.65;5.45;;;12.40;99.90;;;;;;5041783;28;20104;-52
2021/09/19 04:35:20;;;;;;;9.75;5.53;;;12.40;99.90;;;;;;5047471;28;20027;-52
2021/09/19 04:37:45;;;;;;;8.45;6.28;;;12.40;99.90;;;;;;5040053;28;20079;-52
2021/09/19 04:40:11;;;;;;;9.30;5.47;;;12.40;99.90;;;;;;5046057;28;20472;-51
2021/09/19 04:42:37;;;;;;;8.93;5.35;;;12.40;99.90;;;;;;5048930;28;20025;-51
2021/09/19 04:45:04;;;;;;;15.68;6.22;;;12.40;99.90;;;;;;5048842;28;20033;-50
2021/09/19 04:47:30;;;;;;;8.18;5.35;;;12.40;99.90;;;;;;5042402;28;20487;-51
2021/09/19 04:49:55;;;;;;;7.25;5.13;;;12.40;99.90;;;;;;5035173;28;20120;-52
2021/09/19 04:52:21;;;;;;;9.23;5.47;;;12.40;99.90;;;;;;5041244;28;20032;-52
2021/09/19 04:54:46;;;;;;;7.88;5.28;;;12.40;99.90;;;;;;5028997;28;20068;-52
2021/09/19 04:57:12;;;;;;;8.82;4.82;;;12.40;99.90;;;;;;5028249;28;20101;-52
2021/09/19 04:59:37;;;;;;;8.98;5.68;;;12.40;99.90;;;;;;5028679;28;20471;-52
2021/09/19 05:02:03;;;;;;;7.95;5.53;;;12.40;99.90;;;;;;5027806;28;20017;-52
2021/09/19 05:04:29;;;;;;;8.77;5.85;;;12.40;99.90;;;;;;5043230;28;20029;-52
2021/09/19 05:06:55;;;;;;;9.18;5.97;;;12.50;99.90;;;;;;5041858;28;20067;-52
2021/09/19 05:09:20;;;;;;;7.13;5.25;;;12.40;99.90;;;;;;5039920;28;20095;-52
2021/09/19 05:11:45;;;;;;;10.20;6.45;;;12.40;99.90;;;;;;5037872;28;20400;-48
2021/09/19 05:14:12;;;;;;;9.57;5.55;;;12.50;99.90;;;;;;5042090;28;20025;-49
2021/09/19 05:16:38;;;;;;;9.30;5.43;;;12.50;99.90;;;;;;5042213;28;20021;-49
2021/09/19 05:19:04;;;;;;;6.88;4.90;;;12.40;99.90;;;;;;5043861;28;20101;-48
2021/09/19 05:21:30;;;;;;;13.68;5.25;;;12.40;99.90;;;;;;5040753;28;20053;-48
2021/09/19 05:23:55;;;;;;;8.85;5.45;;;12.40;99.90;;;;;;5042355;28;20040;-48
2021/09/19 05:26:21;;;;;;;8.45;5.30;;;12.40;99.90;;;;;;5041786;28;20025;-48
2021/09/19 05:28:47;;;;;;;7.60;4.90;;;12.50;99.90;;;;;;5044394;28;20395;-51
2021/09/19 05:31:13;;;;;;;8.20;5.43;;;12.50;99.90;;;;;;5042286;28;20029;-50
2021/09/19 05:33:39;;;;;;;8.20;5.82;;;12.50;99.90;;;;;;5040125;28;20074;-48
2021/09/19 05:36:04;;;;;;;7.97;5.90;;;12.50;99.90;;;;;;5042131;28;20199;-49
2021/09/19 05:38:30;;;;;;;10.02;4.85;;;12.50;99.90;;;;;;5063576;28;20539;-48
2021/09/19 05:40:56;;;;;;;9.18;5.18;;;12.50;99.90;;;;;;5050203;28;20114;-48
2021/09/19 05:43:21;;;;;;;7.65;4.95;;;12.50;99.90;;;;;;5067770;28;20036;-51
2021/09/19 05:45:47;;;;;;;7.53;5.15;;;12.50;99.90;;;;;;5067470;28;20046;-51
2021/09/19 05:48:12;;;;;;;6.75;4.85;;;12.50;99.90;;;;;;5066946;28;20035;-51
2021/09/19 05:50:38;;;;;;;9.65;5.78;;;12.50;99.90;;;;;;5067566;28;20042;-51
2021/09/19 05:53:03;;;;;;;10.30;5.88;;;12.60;99.90;;;;;;5067524;28;20025;-49
2021/09/19 05:55:29;;;;;;;7.18;5.18;;;12.60;99.90;;;;;;5067630;28;20383;-49
2021/09/19 05:57:55;;;;;;;7.55;5.20;;;12.60;99.90;;;;;;5067003;28;20425;-48
2021/09/19 06:00:20;;;;;;;10.02;6.13;;;12.60;99.90;;;;;;5067810;28;20077;-48
2021/09/19 06:02:46;;;;;;;7.13;5.57;;;12.60;99.90;;;;;;5047041;28;20033;-48
2021/09/19 06:05:11;;;;;;;10.93;5.95;;;12.60;99.90;;;;;;5059074;28;20454;-48
2021/09/19 06:07:37;;;;;;;7.75;5.10;;;12.60;99.90;;;;;;5066747;28;20036;-48
2021/09/19 06:10:05;;;;;;;7.60;4.95;;;12.60;99.90;;;;;;5067693;28;20027;-47
2021/09/19 06:12:30;;;;;;;7.95;4.85;;;12.70;99.90;;;;;;5046604;28;20083;-51
2021/09/19 06:14:56;;;;;;;6.57;4.55;;;12.70;99.90;;;;;;5037535;28;20029;-51
2021/09/19 06:17:21;;;;;;;8.18;5.78;;;12.70;99.90;;;;;;5038584;28;20108;-51
2021/09/19 06:19:48;;;;;;;10.60;6.22;;;12.70;99.90;;;;;;5035956;28;20496;-49
2021/09/19 06:22:14;;;;;;;10.40;5.03;;;12.70;99.90;;;;;;5038355;28;20491;-50
2021/09/19 06:24:40;;;;;;;7.65;5.35;;;12.70;99.90;;;;;;5036031;28;20053;-49
2021/09/19 06:27:06;;;;;;;7.97;5.55;;;12.80;99.90;;;;;;5031745;28;20030;-50
2021/09/19 06:29:32;;;;;;;8.05;5.22;;;12.70;99.90;;;;;;5032459;28;20031;-49
2021/09/19 06:31:57;;;;;;;7.28;5.47;;;12.70;99.90;;;;;;5032888;28;20487;-52
2021/09/19 06:34:23;;;;;;;7.90;5.10;;;12.70;99.90;;;;;;5048077;28;20028;-50
2021/09/19 06:36:48;;;;;;;6.93;5.05;;;12.80;99.90;;;;;;5048862;28;20037;-48
2021/09/19 06:39:14;;;;;;;8.00;5.63;;;12.80;99.90;;;;;;5044640;28;20537;-49
2021/09/19 06:41:39;;;;;;;11.70;5.95;;;12.80;99.90;;;;;;5051194;28;20017;-50
2021/09/19 06:44:05;;;;;;;10.25;6.05;;;12.70;99.90;;;;;;5066392;28;20444;-48
2021/09/19 06:46:31;;;;;;;9.18;5.63;;;12.80;99.90;;;;;;5066204;28;20032;-50
2021/09/19 06:49:01;;;;;;;8.90;5.20;;;12.80;99.90;;;;;;5066969;28;20148;-48
2021/09/19 06:51:27;;;;;;;10.60;5.43;;;12.90;99.90;;;;;;5066790;28;20024;-51
2021/09/19 06:53:53;;;;;;;9.77;5.22;;;12.90;99.90;;;;;;5066847;28;20106;-49
2021/09/19 06:56:21;;;;;;;8.80;5.97;;;13.00;99.90;;;;;;5066406;28;20384;-52
2021/09/19 06:58:47;;;;;;;11.23;6.28;;;13.00;99.90;;;;;;5066543;28;20055;-49
2021/09/19 07:01:14;;;;;;;8.55;5.97;;;13.00;99.90;;;;;;5066854;28;20452;-49
2021/09/19 07:03:41;;;;;;;9.43;5.47;;;13.00;99.90;;;;;;5059199;28;20107;-49
2021/09/19 07:06:07;;;;;;;12.13;6.03;;;13.00;99.90;;;;;;5058506;28;20055;-50
2021/09/19 07:08:33;;;;;;;12.52;6.78;;;13.00;99.90;;;;;;5065012;28;20024;-49
2021/09/19 07:10:59;;;;;;;7.18;5.22;;;13.10;99.90;;;;;;5065639;28;20017;-49
2021/09/19 07:13:25;;;;;;;9.32;5.30;;;13.10;99.90;;;;;;5064674;28;20508;-49
2021/09/19 07:15:53;;;;;;;9.55;6.03;;;13.20;99.90;;;;;;5066655;28;20036;-50
2021/09/19 07:18:23;;;;;;;8.57;5.55;;;13.20;99.90;;;;;;5040290;28;20471;-50
2021/09/19 07:20:49;;;;;;;7.18;5.57;;;13.20;99.90;;;;;;5045140;28;20029;-51
2021/09/19 07:23:15;;;;;;;8.98;5.03;;;13.30;99.90;;;;;;5046588;28;20033;-51
2021/09/19 07:25:41;;;;;;;6.82;5.32;;;13.20;99.90;;;;;;5047144;28;20494;-51
2021/09/19 07:28:07;;;;;;;9.60;5.95;;;13.30;99.90;;;;;;5049376;28;20046;-51
2021/09/19 07:30:33;;;;;;;14.25;6.05;;;13.40;99.90;;;;;;5050016;28;20028;-51
2021/09/19 07:33:00;;;;;;;10.85;5.97;;;13.50;99.90;;;;;;5047424;28;20128;-51
2021/09/19 07:35:26;;;;;;;7.45;5.53;;;13.50;99.90;;;;;;5050073;28;20091;-51
2021/09/19 07:37:52;;;;;;;10.18;5.70;;;13.50;99.90;;;;;;5048486;28;20273;-51
2021/09/19 07:40:19;;;;;;;8.15;4.85;;;13.50;99.90;;;;;;5048668;28;20383;-51
2021/09/19 07:42:44;;;;;;;8.10;5.55;;;13.50;99.90;;;;;;5049763;28;20502;-51
2021/09/19 07:45:11;;;;;;;7.65;4.78;;;13.50;99.90;;;;;;5049444;28;20029;-51
2021/09/19 07:47:36;;;;;;;8.85;5.22;;;13.50;99.90;;;;;;5047477;28;20029;-51
2021/09/19 07:50:04;;;;;;;9.45;6.00;;;13.60;99.90;;;;;;5049664;28;20041;-50
2021/09/19 07:52:30;;;;;;;11.02;5.88;;;13.50;99.90;;;;;;5049646;28;20075;-52
2021/09/19 07:54:55;;;;;;;8.95;5.93;;;13.50;99.90;;;;;;5048049;28;20029;-50
2021/09/19 07:57:22;;;;;;;7.78;5.35;;;13.50;99.90;;;;;;5046739;28;20029;-53
2021/09/19 07:59:52;;;;;;;10.55;6.05;;;13.50;99.90;;;;;;5047696;28;20025;-53
2021/09/19 08:02:19;;;;;;;9.98;5.47;;;13.50;99.90;;;;;;5047548;28;20036;-53
2021/09/19 08:04:45;;;;;;;9.77;5.68;;;13.60;99.90;;;;;;5054142;28;20430;-53
2021/09/19 08:07:10;;;;;;;7.68;5.68;;;13.60;99.90;;;;;;5068809;28;20032;-53
2021/09/19 08:09:36;;;;;;;11.35;6.10;;;13.60;99.90;;;;;;5069356;28;20490;-53
2021/09/19 08:12:03;;;;;;;10.43;5.88;;;13.60;99.90;;;;;;5069479;28;20071;-53
2021/09/19 08:14:28;;;;;;;8.63;5.60;;;13.60;99.90;;;;;;5068808;28;20448;-53
2021/09/19 08:16:55;;;;;;;8.85;5.32;;;13.60;99.90;;;;;;5068669;28;20043;-53
2021/09/19 08:19:21;;;;;;;8.50;6.03;;;13.70;99.90;;;;;;5068740;28;20086;-53
2021/09/19 08:21:47;;;;;;;10.45;5.88;;;13.70;99.90;;;;;;5069018;28;20431;-53
2021/09/19 08:24:14;;;;;;;8.93;5.88;;;13.70;99.90;;;;;;5068697;28;20131;-53
2021/09/19 08:26:40;;;;;;;9.88;5.57;;;13.80;99.90;;;;;;5067961;28;20024;-53
2021/09/19 08:29:06;;;;;;;6.97;5.43;;;13.90;99.90;;;;;;5068821;28;20376;-54
2021/09/19 08:31:32;;;;;;;8.27;5.90;;;13.90;99.90;;;;;;5068737;28;20028;-53
2021/09/19 08:33:58;;;;;;;9.20;5.65;;;13.90;99.90;;;;;;5062768;28;20044;-53
2021/09/19 08:36:24;;;;;;;9.07;5.68;;;14.00;99.90;;;;;;5055029;28;20025;-54
2021/09/19 08:38:50;;;;;;;7.30;5.22;;;14.00;99.90;;;;;;5043109;28;20037;-54
2021/09/19 08:41:17;;;;;;;7.57;5.30;;;14.00;99.90;;;;;;5049472;28;20033;-53
2021/09/19 08:43:44;;;;;;;10.02;5.40;;;14.00;99.90;;;;;;5048871;28;20398;-53
2021/09/19 08:46:14;;;;;;;8.88;5.03;;;14.00;99.90;;;;;;5048108;28;20548;-55
2021/09/19 08:48:40;;;;;;;7.17;5.60;;;14.10;99.90;;;;;;5047943;28;20032;-53
2021/09/19 08:51:06;;;;;;;12.93;6.07;;;14.10;99.90;;;;;;5048435;28;20086;-53
2021/09/19 08:53:31;;;;;;;7.10;5.40;;;14.00;99.90;;;;;;5048489;28;20089;-53
2021/09/19 08:55:58;;;;;;;8.43;5.40;;;14.00;99.90;;;;;;5048440;28;20360;-53
2021/09/19 08:58:23;;;;;;;7.47;5.28;;;14.00;99.90;;;;;;5047599;28;20429;-53
2021/09/19 09:00:49;;;;;;;8.05;5.40;;;14.00;99.90;;;;;;5047274;28;20171;-55
2021/09/19 09:03:19;;;;;;;9.82;6.18;;;14.10;99.90;;;;;;5050706;28;20355;-53
2021/09/19 09:05:53;;;;;;;8.45;5.28;;;14.20;99.90;;;;;;5060296;28;20305;-53
2021/09/19 09:08:19;;;;;;;8.38;5.25;;;14.30;99.90;;;;;;5068094;28;20096;-53
2021/09/19 09:10:47;;;;;;;7.00;5.07;;;14.50;99.90;;;;;;5068740;28;20497;-53
2021/09/19 09:13:21;;;;;;;7.00;5.30;;;14.50;99.90;;;;;;5066888;28;20508;-53
2021/09/19 09:16:12;;;;;;;7.88;4.68;;;14.60;99.90;;;;;;5068248;28;20467;-53
2021/09/19 09:18:43;;;;;;;9.88;5.03;;;14.70;99.90;;;;;;5063883;28;20025;-53
2021/09/19 09:21:13;;;;;;;8.48;5.55;;;14.70;99.90;;;;;;5067557;28;20167;-54
2021/09/19 09:23:40;;;;;;;6.53;4.97;;;14.90;99.90;;;;;;5068238;28;20024;-54
2021/09/19 09:26:27;;;;;;;6.53;4.97;;;15.00;99.90;;;;;;5067970;28;20021;-54
2021/09/19 09:29:05;;;;;;;7.75;5.10;;;15.10;99.90;;;;;;5068405;28;20024;-53
2021/09/19 09:31:34;;;;;;;6.93;4.82;;;15.20;99.90;;;;;;5067794;28;20502;-53
2021/09/19 09:34:07;;;;;;;13.63;5.15;;;15.30;99.90;;;;;;5063176;28;20036;-55
2021/09/19 09:36:37;;;;;;;8.10;4.85;;;15.40;99.90;;;;;;5062749;28;20436;-54
2021/09/19 09:39:20;;;;;;;8.30;4.97;;;15.50;99.90;;;;;;5067964;28;20024;-54
2021/09/19 09:41:46;;;;;;;6.80;4.55;;;15.50;99.90;;;;;;5067726;28;20075;-54
2021/09/19 09:44:32;;;;;;;8.23;5.30;;;15.60;99.90;;;;;;5067740;28;20059;-54
2021/09/19 09:47:00;;;;;;;8.73;4.80;;;15.60;99.90;;;;;;5067260;28;20056;-54
2021/09/19 09:49:44;;;;;;;6.35;4.50;;;15.70;99.90;;;;;;5066131;28;20486;-55
2021/09/19 09:52:22;;;;;;;8.35;4.55;;;15.80;99.90;;;;;;5041159;28;20322;-54
2021/09/19 09:54:49;;;;;;;8.73;5.40;;;15.90;99.90;;;;;;5027766;28;20109;-53
2021/09/19 09:57:34;;;;;;;9.13;5.55;;;15.90;99.90;;;;;;5026854;28;20055;-53
2021/09/19 10:00:00;;;;;;;7.43;4.53;;;16.00;99.90;;;;;;5027315;28;20030;-53
2021/09/19 10:02:27;;;;;;;6.28;4.50;;;16.10;99.90;;;;;;5027462;28;20096;-53
2021/09/19 10:04:54;;;;;;;7.70;4.35;;;16.10;99.90;;;;;;5053710;28;20025;-53
2021/09/19 10:07:20;;;;;;;6.38;4.03;;;16.10;99.90;;;;;;5046128;28;20033;-54
2021/09/19 10:09:46;;;;;;;5.85;3.70;;;16.10;99.90;;;;;;5027775;28;20402;-54
2021/09/19 10:12:12;;;;;;;6.47;3.70;;;16.20;99.90;;;;;;5027346;28;20444;-53
2021/09/19 10:14:38;;;;;;;11.30;4.65;;;16.20;99.90;;;;;;5027644;28;20445;-53
2021/09/19 10:17:03;;;;;;;6.90;4.43;;;16.20;99.90;;;;;;5034155;28;20029;-54
2021/09/19 10:19:29;;;;;;;8.65;3.67;;;16.30;99.90;;;;;;5046902;28;20028;-54
2021/09/19 10:21:58;;;;;;;5.40;4.03;;;16.40;99.90;;;;;;5046838;28;20044;-54
2021/09/19 10:24:25;;;;;;;7.15;3.60;;;16.60;99.90;;;;;;5047280;28;20134;-54
2021/09/19 10:26:57;;;;;;;4.38;3.70;;;16.80;99.90;;;;;;5046116;28;20033;-54
2021/09/19 10:29:27;;;;;;;5.45;3.50;;;16.90;99.90;;;;;;5047303;28;20025;-54
2021/09/19 10:31:57;;;;;;;5.78;3.97;;;16.90;99.90;;;;;;5034830;28;20021;-54
2021/09/19 10:34:28;;;;;;;4.90;3.60;;;17.00;99.90;;;;;;5052067;28;20033;-54
2021/09/19 10:36:55;;;;;;;;;;;17.20;99.90;;;;;;5037341;28;20033;-53
2021/09/19 10:39:38;;;;;;;6.60;3.28;;;17.40;99.90;;;;;;5027389;28;19959;-52
2021/09/19 10:42:19;;;;;;;5.20;3.67;;;17.60;99.90;;;;;;5030793;28;20029;-52
2021/09/19 10:44:44;;;;;;;4.55;3.45;;;17.60;99.90;;;;;;5029237;28;20152;-52
2021/09/19 10:47:11;;;;;;;7.15;3.95;;;17.60;99.90;;;;;;5026920;28;20113;-52
2021/09/19 10:49:39;;;;;;;5.35;3.15;;;17.50;99.20;;;;;;5027263;28;20443;-53
2021/09/19 10:52:04;;;;;;;6.25;3.53;;;17.50;99.40;;;;;;5025265;28;20471;-52
2021/09/19 10:54:42;;;;;;;6.07;3.70;;;17.50;98.50;;;;;;5027286;28;20062;-53
2021/09/19 10:57:22;;;;;;;7.50;3.75;;;17.60;98.30;;;;;;5026046;28;20036;-53
2021/09/19 11:00:20;;;;;;;6.43;3.53;;;17.50;98.50;;;;;;5026433;28;20024;-53
2021/09/19 11:03:14;;;;;;;7.55;3.80;;;17.60;98.10;;;;;;5029992;28;20025;-52
2021/09/19 11:05:50;;;;;;;5.95;3.58;;;18.10;97.30;;;;;;5046376;28;20039;-52
2021/09/19 11:08:28;;;;;;;5.80;3.45;;;19.20;96.20;;;;;;5028772;28;20476;-53
2021/09/19 11:10:55;;;;;;;4.70;3.35;;;19.80;93.20;;;;;;5030116;28;20489;-52
2021/09/19 11:13:28;;;;;;;6.10;3.95;;;19.80;92.50;;;;;;5030659;28;20026;-52
2021/09/19 11:16:03;;;;;;;4.55;3.10;;;19.50;92.00;;;;;;5030709;28;20040;-52
2021/09/19 11:18:30;;;;;;;7.38;3.22;;;19.00;89.80;;;;;;5030182;28;20027;-52
2021/09/19 11:21:11;;;;;;;4.30;3.05;;;18.50;90.60;;;;;;5030997;28;20034;-52
2021/09/19 11:24:01;;;;;;;;;;;18.10;91.50;;;;;;5031309;28;20480;-52
2021/09/19 11:26:32;;;;;;;6.90;3.60;;;17.70;92.60;;;;;;5027006;28;19913;-52
2021/09/19 11:29:03;;;;;;;4.32;2.83;;;17.40;93.30;;;;;;5030650;28;20025;-52
2021/09/19 11:31:29;;;;;;;4.45;3.30;;;17.20;94.10;;;;;;5030703;28;20176;-52
2021/09/19 11:33:57;;;;;;;4.45;3.25;;;17.00;94.10;;;;;;5033317;28;20034;-52
2021/09/19 11:36:23;;;;;;;9.68;3.60;;;16.80;95.30;;;;;;5060345;28;20462;-52
2021/09/19 11:38:54;;;;;;;5.63;3.65;;;16.70;95.50;;;;;;5069319;28;20028;-52
2021/09/19 11:41:22;;;;;;;6.88;3.30;;;16.60;95.00;;;;;;5070271;28;20020;-52
2021/09/19 11:43:51;;;;;;;5.20;2.83;;;16.50;95.90;;;;;;5068841;28;20024;-52
2021/09/19 11:46:20;;;;;;;6.32;3.15;;;16.40;96.40;;;;;;5069737;28;20125;-53
2021/09/19 11:48:46;;;;;;;4.53;3.45;;;16.40;96.40;;;;;;5068113;28;20027;-52
2021/09/19 11:51:17;;;;;;;5.68;3.38;;;16.30;96.60;;;;;;5070419;28;20032;-52
2021/09/19 11:53:44;;;;;;;7.32;4.22;;;16.30;97.00;;;;;;5070259;28;20091;-52
2021/09/19 11:56:10;;;;;;;4.15;3.33;;;16.10;97.50;;;;;;5069666;28;20467;-51
2021/09/19 11:58:36;;;;;;;6.68;4.03;;;16.20;97.80;;;;;;5069067;28;20024;-52
2021/09/19 12:01:03;;;;;;;5.00;3.60;;;16.30;97.70;;;;;;5069790;28;20104;-52
2021/09/19 12:03:28;;;;;;;6.40;3.75;;;16.20;97.80;;;;;;5058158;28;20052;-53
2021/09/19 12:05:56;;;;;;;6.75;4.15;;;16.30;98.10;;;;;;5056207;28;20278;-52
2021/09/19 12:08:25;;;;;;;5.35;3.85;;;16.30;98.50;;;;;;5069037;28;20142;-52
2021/09/19 12:10:55;;;;;;;7.50;3.80;;;16.40;97.90;;;;;;5069818;28;20029;-52
2021/09/19 12:13:22;;;;;;;8.10;4.32;;;16.40;97.00;;;;;;5068658;28;20409;-52
2021/09/19 12:16:09;;;;;;;6.78;3.85;;;16.50;96.90;;;;;;5068011;28;20525;-54
2021/09/19 12:18:38;;;;;;;8.85;4.43;;;16.60;96.50;;;;;;5068971;28;20023;-54
2021/09/19 12:21:09;;;;;;;5.53;3.53;;;16.60;97.20;;;;;;5069753;28;20029;-53
2021/09/19 12:23:50;;;;;;;5.93;3.80;;;16.70;96.90;;;;;;5069436;28;20231;-52
2021/09/19 12:26:25;;;;;;;6.80;3.67;;;16.80;97.20;;;;;;5069295;28;20016;-52
2021/09/19 12:28:59;;;;;;;7.25;3.67;;;16.80;97.10;;;;;;5069026;28;20052;-52
2021/09/19 12:31:42;;;;;;;7.28;4.15;;;16.80;96.80;;;;;;5069284;28;20028;-52
2021/09/19 12:34:10;;;;;;;5.30;3.25;;;16.80;95.50;;;;;;5055477;28;20043;-52
2021/09/19 12:36:44;;;;;;;4.50;3.05;;;16.80;94.80;;;;;;5058953;28;20012;-52
2021/09/19 12:39:20;;;;;;;4.45;3.25;;;16.70;95.00;;;;;;5069650;28;20028;-52
2021/09/19 12:41:49;;;;;;;7.20;3.42;;;16.60;95.40;;;;;;5068067;28;20028;-52
2021/09/19 12:44:21;;;;;;;5.95;3.63;;;16.50;95.70;;;;;;5069313;28;20028;-52
2021/09/19 12:46:49;;;;;;;4.93;3.35;;;16.40;95.60;;;;;;5068176;28;20020;-53